createdAt,value
2023-03-11T00:01:18.869Z,97270.94
2023-03-11T00:03:45.712Z,97279.25
2023-03-11T00:06:12.487Z,97287.44
2023-03-11T00:08:39.372Z,97282.88
2023-03-11T00:11:08.210Z,97294.53
2023-03-11T00:13:35.236Z,97293.38
2023-03-11T00:16:04.552Z,97291.41
2023-03-11T00:18:35.023Z,97290.66
2023-03-11T00:21:03.128Z,97287.50
2023-03-11T00:23:30.076Z,97306.50
2023-03-11T00:25:57.548Z,97288.16
2023-03-11T00:28:25.495Z,97282.50
2023-03-11T00:30:52.726Z,97290.38
2023-03-11T00:33:21.861Z,97307.19
2023-03-11T00:35:50.379Z,97321.84
2023-03-11T00:38:20.468Z,97323.66
2023-03-11T00:40:48.921Z,97358.75
2023-03-11T00:43:16.736Z,97400.72
2023-03-11T00:45:44.299Z,97414.78
2023-03-11T00:48:13.381Z,97414.84
2023-03-11T00:50:42.764Z,97403.59
2023-03-11T00:53:10.420Z,97403.97
2023-03-11T00:55:38.578Z,97397.84
2023-03-11T00:58:08.805Z,97404.94
2023-03-11T01:00:43.536Z,97414.00
2023-03-11T01:03:10.671Z,97431.97
2023-03-11T01:05:38.572Z,97433.84
2023-03-11T01:08:05.997Z,97448.78
2023-03-11T01:10:34.331Z,97459.69
2023-03-11T01:13:02.317Z,97466.75
2023-03-11T01:15:35.223Z,97452.91
2023-03-11T01:18:03.610Z,97476.78
2023-03-11T01:20:33.216Z,97481.56
2023-03-11T01:23:00.020Z,97453.13
2023-03-11T01:25:29.632Z,97459.09
2023-03-11T01:28:00.739Z,97466.94
2023-03-11T01:30:30.397Z,97466.19
2023-03-11T01:32:58.602Z,97459.75
2023-03-11T01:35:28.316Z,97481.41
2023-03-11T01:37:59.891Z,97464.97
2023-03-11T01:40:31.431Z,97469.91
2023-03-11T01:43:03.408Z,97470.97
2023-03-11T01:45:49.419Z,97486.09
2023-03-11T01:48:18.950Z,97490.56
2023-03-11T01:50:50.820Z,97502.84
2023-03-11T01:53:22.265Z,97511.03
2023-03-11T01:55:49.648Z,97517.84
2023-03-11T01:58:21.402Z,97506.22
2023-03-11T02:00:48.349Z,97523.28
2023-03-11T02:03:26.551Z,97513.03
2023-03-11T02:05:57.369Z,97531.94
2023-03-11T02:08:24.228Z,97542.13
2023-03-11T02:10:53.366Z,97523.84
2023-03-11T02:13:21.822Z,97522.03
2023-03-11T02:15:48.909Z,97508.22
2023-03-11T02:18:20.573Z,97517.34
2023-03-11T02:20:58.886Z,97510.56
2023-03-11T02:23:34.383Z,97510.94
2023-03-11T02:26:15.365Z,97511.69
2023-03-11T02:28:43.842Z,97515.84
2023-03-11T02:31:11.433Z,97496.81
2023-03-11T02:33:38.512Z,97516.19
2023-03-11T02:36:07.659Z,97519.09
2023-03-11T02:38:35.680Z,97505.59
2023-03-11T02:41:03.046Z,97538.75
2023-03-11T02:46:33.734Z,97553.97
2023-03-11T02:49:01.211Z,97559.31
2023-03-11T02:51:28.056Z,97551.50
2023-03-11T02:53:59.971Z,97549.63
2023-03-11T02:56:29.101Z,97540.72
2023-03-11T02:58:56.699Z,97556.69
2023-03-11T03:01:24.985Z,97587.53
2023-03-11T03:03:51.979Z,97552.22
2023-03-11T03:06:20.045Z,97547.94
2023-03-11T03:08:52.675Z,97552.53
2023-03-11T03:11:21.577Z,97579.22
2023-03-11T03:13:50.659Z,97596.06
2023-03-11T03:16:17.889Z,97588.56
2023-03-11T03:18:45.450Z,97585.47
2023-03-11T03:21:12.252Z,97566.59
2023-03-11T03:23:39.166Z,97592.03
2023-03-11T03:26:06.279Z,97592.31
2023-03-11T03:28:36.427Z,97586.19
2023-03-11T03:31:08.682Z,97597.69
2023-03-11T03:33:38.384Z,97587.84
2023-03-11T03:36:10.734Z,97604.56
2023-03-11T03:38:44.611Z,97604.84
2023-03-11T03:41:15.833Z,97609.03
2023-03-11T03:43:44.360Z,97603.75
2023-03-11T03:46:11.917Z,97598.69
2023-03-11T03:48:43.101Z,97601.28
2023-03-11T03:51:13.519Z,97602.97
2023-03-11T03:53:56.350Z,97606.59
2023-03-11T03:56:25.446Z,97611.13
2023-03-11T03:58:54.015Z,97587.69
2023-03-11T04:01:26.629Z,97604.88
2023-03-11T04:03:53.569Z,97612.03
2023-03-11T04:06:24.770Z,97625.66
2023-03-11T04:09:16.900Z,97615.38
2023-03-11T04:11:43.950Z,97599.56
2023-03-11T04:14:13.513Z,97606.72
2023-03-11T04:16:46.444Z,97609.28
2023-03-11T04:19:15.008Z,97591.75
2023-03-11T04:21:41.993Z,97586.56
2023-03-11T04:24:09.619Z,97597.28
2023-03-11T04:26:39.212Z,97610.69
2023-03-11T04:29:10.210Z,97590.28
2023-03-11T04:31:41.997Z,97597.16
2023-03-11T04:34:11.730Z,97612.59
2023-03-11T04:36:40.119Z,97609.97
2023-03-11T04:39:08.438Z,97615.50
2023-03-11T04:41:40.867Z,97604.78
2023-03-11T04:44:09.988Z,97625.41
2023-03-11T04:46:37.511Z,97615.13
2023-03-11T04:49:07.173Z,97617.53
2023-03-11T04:51:38.740Z,97608.97
2023-03-11T04:54:07.246Z,97618.91
2023-03-11T04:56:35.743Z,97621.91
2023-03-11T04:59:04.303Z,97618.03
2023-03-11T05:01:34.080Z,97613.44
2023-03-11T05:04:04.689Z,97614.22
2023-03-11T05:06:31.848Z,97617.66
2023-03-11T05:09:01.098Z,97611.69
2023-03-11T05:11:29.675Z,97596.69
2023-03-11T05:13:57.438Z,97602.50
2023-03-11T05:16:24.899Z,97609.50
2023-03-11T05:18:51.788Z,97614.22
2023-03-11T05:21:20.786Z,97612.22
2023-03-11T05:23:47.719Z,97613.88
2023-03-11T05:26:15.027Z,97610.78
2023-03-11T05:28:47.670Z,97602.19
2023-03-11T05:31:15.872Z,97595.94
2023-03-11T05:33:43.417Z,97589.38
2023-03-11T05:36:12.799Z,97602.56
2023-03-11T05:38:43.293Z,97581.50
2023-03-11T05:41:12.900Z,97598.91
2023-03-11T05:43:42.186Z,97583.31
2023-03-11T05:46:09.219Z,97595.84
2023-03-11T05:48:36.089Z,97602.00
2023-03-11T05:51:10.414Z,97596.50
2023-03-11T05:53:39.316Z,97611.34
2023-03-11T05:56:06.439Z,97593.63
2023-03-11T05:58:33.526Z,97594.88
2023-03-11T06:01:00.537Z,97612.19
2023-03-11T06:06:20.787Z,97622.09
2023-03-11T06:08:47.707Z,97614.50
2023-03-11T06:11:18.094Z,97619.09
2023-03-11T06:14:12.829Z,97641.75
2023-03-11T06:16:42.826Z,97599.19
2023-03-11T06:19:13.469Z,97618.75
2023-03-11T06:21:46.824Z,97584.84
2023-03-11T06:24:14.369Z,97613.13
2023-03-11T06:26:43.984Z,97584.88
2023-03-11T06:29:14.898Z,97580.06
2023-03-11T06:31:42.910Z,97583.19
2023-03-11T06:39:58.829Z,97579.88
2023-03-11T06:42:26.869Z,97593.97
2023-03-11T06:44:57.074Z,97583.38
2023-03-11T06:47:25.991Z,97589.59
2023-03-11T06:49:52.938Z,97597.69
2023-03-11T06:52:20.114Z,97591.41
2023-03-11T06:54:50.452Z,97581.66
2023-03-11T06:57:17.741Z,97596.97
2023-03-11T06:59:46.897Z,97595.34
2023-03-11T07:02:17.012Z,97587.25
2023-03-11T07:04:44.038Z,97597.25
2023-03-11T07:07:10.880Z,97617.44
2023-03-11T07:09:39.347Z,97593.06
2023-03-11T07:12:09.873Z,97609.34
2023-03-11T07:14:37.485Z,97618.63
2023-03-11T07:17:04.304Z,97619.72
2023-03-11T07:19:36.330Z,97620.69
2023-03-11T07:22:03.115Z,97639.56
2023-03-11T07:24:30.186Z,97636.84
2023-03-11T07:26:56.987Z,97646.06
2023-03-11T07:29:24.288Z,97637.72
2023-03-11T07:31:51.059Z,97620.69
2023-03-11T07:34:19.453Z,97646.16
2023-03-11T07:36:47.350Z,97634.16
2023-03-11T07:39:17.715Z,97670.47
2023-03-11T07:41:46.890Z,97673.66
2023-03-11T07:44:15.737Z,97663.00
2023-03-11T07:46:43.827Z,97671.75
2023-03-11T07:49:11.894Z,97687.13
2023-03-11T07:51:39.898Z,97697.09
2023-03-11T07:54:07.176Z,97705.88
2023-03-11T07:56:35.692Z,97730.69
2023-03-11T07:59:04.719Z,97722.56
2023-03-11T08:01:34.163Z,97728.50
2023-03-11T08:04:03.749Z,97728.22
2023-03-11T08:06:33.949Z,97728.38
2023-03-11T08:09:02.347Z,97736.38
2023-03-11T08:11:30.782Z,97753.28
2023-03-11T08:13:57.873Z,97737.69
2023-03-11T08:16:29.433Z,97764.69
2023-03-11T08:18:56.513Z,97770.38
2023-03-11T08:21:27.697Z,97769.69
2023-03-11T08:23:58.313Z,97779.06
2023-03-11T08:26:25.868Z,97772.09
2023-03-11T08:28:52.651Z,97781.63
2023-03-11T08:31:23.950Z,97778.69
2023-03-11T08:33:52.864Z,97792.34
2023-03-11T08:36:21.115Z,97797.63
2023-03-11T08:38:48.593Z,97802.00
2023-03-11T08:41:16.049Z,97797.53
2023-03-11T08:43:43.545Z,97805.22
2023-03-11T08:46:20.548Z,97820.00
2023-03-11T08:48:47.458Z,97815.56
2023-03-11T08:51:14.827Z,97822.47
2023-03-11T08:53:43.483Z,97811.09
2023-03-11T08:56:10.908Z,97831.16
2023-03-11T08:58:37.777Z,97837.38
2023-03-11T09:04:00.520Z,97837.44
2023-03-11T09:06:27.308Z,97844.38
2023-03-11T09:08:54.117Z,97852.94
2023-03-11T09:11:21.469Z,97848.53
2023-03-11T09:13:49.976Z,97866.81
2023-03-11T09:16:23.021Z,97854.63
2023-03-11T09:18:50.630Z,97862.63
2023-03-11T09:21:17.536Z,97892.38
2023-03-11T09:23:44.732Z,97886.34
2023-03-11T09:26:12.791Z,97879.13
2023-03-11T09:28:40.766Z,97877.09
2023-03-11T09:31:07.644Z,97896.72
2023-03-11T09:33:41.910Z,97905.28
2023-03-11T09:36:14.066Z,97916.91
2023-03-11T09:38:43.049Z,97924.88
2023-03-11T09:41:23.108Z,97918.47
2023-03-11T09:44:01.706Z,97926.13
2023-03-11T09:46:49.517Z,97943.84
2023-03-11T09:49:27.900Z,97938.47
2023-03-11T09:52:06.356Z,97956.66
2023-03-11T09:54:39.881Z,97956.75
2023-03-11T09:57:15.195Z,97959.84
2023-03-11T09:59:42.876Z,97962.09
2023-03-11T10:02:16.339Z,97962.69
2023-03-11T10:04:59.889Z,97975.69
2023-03-11T10:07:35.308Z,97979.66
2023-03-11T10:10:02.527Z,97978.53
2023-03-11T10:12:35.370Z,97980.66
2023-03-11T10:15:39.406Z,97983.25
2023-03-11T10:18:57.750Z,98010.22
2023-03-11T10:21:46.362Z,98003.69
2023-03-11T10:24:28.076Z,98018.97
2023-03-11T10:27:00.158Z,98023.38
2023-03-11T10:29:32.479Z,98020.50
2023-03-11T10:32:07.530Z,98024.25
2023-03-11T10:35:13.899Z,98021.47
2023-03-11T10:37:49.588Z,98034.81
2023-03-11T10:44:01.807Z,98066.19
2023-03-11T10:46:29.362Z,98060.56
2023-03-11T10:48:56.222Z,98071.09
2023-03-11T10:51:32.405Z,98060.69
2023-03-11T10:54:01.846Z,98076.31
2023-03-11T10:56:33.892Z,98090.78
2023-03-11T10:59:04.853Z,98087.28
2023-03-11T11:01:32.805Z,98083.25
2023-03-11T11:04:01.867Z,98087.13
2023-03-11T11:06:34.946Z,98092.81
2023-03-11T11:09:06.175Z,98091.09
2023-03-11T11:11:36.554Z,98093.41
2023-03-11T11:14:03.946Z,98094.66
2023-03-11T11:16:33.774Z,98102.28
2023-03-11T11:19:14.998Z,98091.94
2023-03-11T11:21:47.772Z,98096.66
2023-03-11T11:24:29.093Z,98098.91
2023-03-11T11:27:17.161Z,98095.03
2023-03-11T11:29:45.025Z,98095.34
2023-03-11T11:32:23.770Z,98100.66
2023-03-11T11:35:01.498Z,98095.25
2023-03-11T11:37:34.960Z,98108.97
2023-03-11T11:40:05.950Z,98090.22
2023-03-11T11:42:34.634Z,98103.44
2023-03-11T11:45:13.950Z,98100.25
2023-03-11T11:47:48.349Z,98095.63
2023-03-11T11:50:31.791Z,98085.78
2023-03-11T11:53:17.769Z,98098.63
2023-03-11T11:55:50.707Z,98092.50
2023-03-11T11:58:19.831Z,98095.91
2023-03-11T12:01:04.383Z,98093.38
2023-03-11T12:03:54.023Z,98109.81
2023-03-11T12:06:50.669Z,98113.00
2023-03-11T12:09:30.234Z,98122.47
2023-03-11T12:12:13.975Z,98128.47
2023-03-11T12:15:00.973Z,98132.44
2023-03-11T12:17:31.176Z,98134.75
2023-03-11T12:20:12.365Z,98137.56
2023-03-11T12:22:39.559Z,98143.25
2023-03-11T12:25:23.340Z,98136.78
2023-03-11T12:27:57.723Z,98154.25
2023-03-11T12:30:30.315Z,98154.06
2023-03-11T12:33:12.006Z,98157.84
2023-03-11T12:35:39.724Z,98164.88
2023-03-11T12:38:14.512Z,98166.44
2023-03-11T12:40:50.091Z,98168.84
2023-03-11T12:43:47.336Z,98167.41
2023-03-11T12:46:16.746Z,98190.47
2023-03-11T12:49:02.560Z,98176.53
2023-03-11T12:51:32.378Z,98189.88
2023-03-11T12:53:59.109Z,98194.59
2023-03-11T12:56:38.734Z,98202.63
2023-03-11T12:59:23.474Z,98190.56
2023-03-11T13:02:00.407Z,98195.19
2023-03-11T13:04:41.103Z,98192.59
2023-03-11T13:07:22.497Z,98201.94
2023-03-11T13:10:13.372Z,98207.66
2023-03-11T13:12:44.957Z,98219.22
2023-03-11T13:15:22.824Z,98202.13
2023-03-11T13:18:13.316Z,98216.91
2023-03-11T13:20:40.529Z,98226.19
2023-03-11T13:23:29.576Z,98222.94
2023-03-11T13:25:56.513Z,98239.63
2023-03-11T13:28:54.451Z,98238.97
2023-03-11T13:32:15.833Z,98250.34
2023-03-11T13:35:10.791Z,98261.34
2023-03-11T13:37:56.985Z,98250.25
2023-03-11T13:40:37.126Z,98256.09
2023-03-11T13:43:29.714Z,98253.56
2023-03-11T13:46:14.481Z,98254.34
2023-03-11T13:48:46.995Z,98269.13
2023-03-11T13:51:38.110Z,98273.31
2023-03-11T13:54:18.756Z,98289.41
2023-03-11T13:56:55.030Z,98289.91
2023-03-11T13:59:27.380Z,98290.38
2023-03-11T14:02:01.158Z,98298.00
2023-03-11T14:04:33.978Z,98301.56
2023-03-11T14:07:12.347Z,98318.53
2023-03-11T14:09:39.372Z,98318.81
2023-03-11T14:12:07.921Z,98322.47
2023-03-11T14:14:58.242Z,98325.38
2023-03-11T14:17:25.401Z,98326.63
2023-03-11T14:20:12.776Z,98331.56
2023-03-11T14:22:45.586Z,98333.41
2023-03-11T14:25:23.126Z,98330.84
2023-03-11T14:27:57.556Z,98333.97
2023-03-11T14:30:29.088Z,98319.00
2023-03-11T14:33:03.018Z,98334.59
2023-03-11T14:35:33.281Z,98335.56
2023-03-11T14:38:01.487Z,98334.25
2023-03-11T14:40:34.477Z,98343.41
2023-03-11T14:43:11.578Z,98344.25
2023-03-11T14:45:42.051Z,98352.13
2023-03-11T14:48:24.546Z,98356.66
2023-03-11T14:50:52.651Z,98359.06
2023-03-11T14:57:14.361Z,98362.97
2023-03-11T14:59:41.862Z,98365.88
2023-03-11T15:06:00.119Z,98368.19
2023-03-11T15:08:35.244Z,98371.16
2023-03-11T15:11:21.477Z,98378.97
2023-03-11T15:13:53.178Z,98378.97
2023-03-11T15:16:33.599Z,98386.31
2023-03-11T15:19:21.091Z,98380.66
2023-03-11T15:21:53.121Z,98394.50
2023-03-11T15:24:29.291Z,98396.69
2023-03-11T15:27:02.632Z,98402.66
2023-03-11T15:29:31.100Z,98393.59
2023-03-11T15:31:59.330Z,98396.69
2023-03-11T15:34:33.713Z,98406.28
2023-03-11T15:37:18.952Z,98410.44
2023-03-11T15:39:49.642Z,98423.72
2023-03-11T15:42:21.724Z,98425.00
2023-03-11T15:44:52.174Z,98419.84
2023-03-11T15:47:22.774Z,98433.66
2023-03-11T15:49:51.238Z,98430.28
2023-03-11T15:52:19.345Z,98427.72
2023-03-11T15:54:55.072Z,98436.59
2023-03-11T15:57:27.578Z,98448.56
2023-03-11T15:59:59.101Z,98450.13
2023-03-11T16:02:29.095Z,98440.25
2023-03-11T16:04:58.852Z,98456.69
2023-03-11T16:07:39.283Z,98463.81
2023-03-11T16:10:11.841Z,98465.13
2023-03-11T16:12:39.492Z,98471.38
2023-03-11T16:15:21.070Z,98465.66
2023-03-11T16:17:50.211Z,98469.81
2023-03-11T16:20:21.662Z,98478.16
2023-03-11T16:22:55.576Z,98472.16
2023-03-11T16:25:36.343Z,98479.97
2023-03-11T16:28:04.365Z,98484.91
2023-03-11T16:30:34.602Z,98481.28
2023-03-11T16:33:05.021Z,98494.06
2023-03-11T16:35:32.892Z,98500.59
2023-03-11T16:38:01.955Z,98504.50
2023-03-11T16:41:00.502Z,98521.66
2023-03-11T16:43:29.830Z,98519.06
2023-03-11T16:45:57.599Z,98525.88
2023-03-11T16:48:27.391Z,98535.25
2023-03-11T16:50:55.086Z,98533.69
2023-03-11T16:53:22.712Z,98550.88
2023-03-11T16:55:49.742Z,98551.66
2023-03-11T16:58:18.103Z,98553.22
2023-03-11T17:00:45.546Z,98551.66
2023-03-11T17:03:21.536Z,98564.94
2023-03-11T17:05:50.135Z,98581.91
2023-03-11T17:08:18.403Z,98571.03
2023-03-11T17:10:46.198Z,98574.41
2023-03-11T17:13:15.496Z,98578.09
2023-03-11T17:15:44.226Z,98582.78
2023-03-11T17:18:13.072Z,98599.97
2023-03-11T17:20:42.497Z,98597.84
2023-03-11T17:23:13.647Z,98607.25
2023-03-11T17:25:44.469Z,98612.44
2023-03-11T17:28:12.422Z,98614.81
2023-03-11T17:30:45.756Z,98612.97
2023-03-11T17:33:38.913Z,98626.00
2023-03-11T17:36:33.682Z,98624.75
2023-03-11T17:39:03.058Z,98634.91
2023-03-11T17:41:31.701Z,98637.53
2023-03-11T17:43:59.420Z,98644.78
2023-03-11T17:46:26.960Z,98645.06
2023-03-11T17:48:57.038Z,98653.13
2023-03-11T17:51:26.878Z,98653.13
2023-03-11T17:53:58.428Z,98659.13
2023-03-11T17:56:26.228Z,98668.75
2023-03-11T17:58:55.192Z,98668.75
2023-03-11T18:01:25.948Z,98668.75
2023-03-11T18:03:54.670Z,98666.16
2023-03-11T18:06:22.750Z,98664.84
2023-03-11T18:08:50.887Z,98674.22
2023-03-11T18:11:22.020Z,98681.78
2023-03-11T18:13:49.982Z,98687.50
2023-03-11T18:16:20.328Z,98690.66
2023-03-11T18:18:48.358Z,98698.75
2023-03-11T18:21:25.385Z,98696.41
2023-03-11T18:23:56.864Z,98700.84
2023-03-11T18:26:30.241Z,98699.06
2023-03-11T18:29:00.158Z,98707.63
2023-03-11T18:31:30.652Z,98702.44
2023-03-11T18:34:01.257Z,98711.81
2023-03-11T18:36:53.896Z,98710.00
2023-03-11T18:39:22.204Z,98717.03
2023-03-11T18:41:50.586Z,98728.78
2023-03-11T18:44:18.059Z,98725.66
2023-03-11T18:46:46.585Z,98725.91
2023-03-11T18:49:14.421Z,98736.06
2023-03-11T18:51:42.655Z,98733.72
2023-03-11T18:54:12.389Z,98730.88
2023-03-11T18:56:40.463Z,98733.19
2023-03-11T18:59:08.393Z,98739.69
2023-03-11T19:01:39.255Z,98746.97
2023-03-11T19:04:07.573Z,98738.41
2023-03-11T19:06:35.315Z,98748.53
2023-03-11T19:09:03.846Z,98749.06
2023-03-11T19:11:31.487Z,98758.91
2023-03-11T19:13:59.177Z,98749.03
2023-03-11T19:16:28.831Z,98750.34
2023-03-11T19:18:58.558Z,98759.72
2023-03-11T19:21:26.656Z,98764.13
2023-03-11T19:23:54.793Z,98766.22
2023-03-11T19:26:30.855Z,98774.03
2023-03-11T19:29:30.719Z,98778.47
2023-03-11T19:32:01.669Z,98780.53
2023-03-11T19:34:32.235Z,98788.06
2023-03-11T19:36:59.945Z,98789.38
2023-03-11T19:39:28.050Z,98789.91
2023-03-11T19:41:55.343Z,98781.34
2023-03-11T19:44:23.933Z,98787.56
2023-03-11T19:46:55.861Z,98789.66
2023-03-11T19:49:23.251Z,98793.28
2023-03-11T19:51:51.011Z,98796.16
2023-03-11T19:54:20.174Z,98793.31
2023-03-11T19:56:50.704Z,98799.03
2023-03-11T19:59:18.208Z,98802.63
2023-03-11T20:01:46.287Z,98801.84
2023-03-11T20:04:15.767Z,98805.78
2023-03-11T20:06:46.448Z,98812.00
2023-03-11T20:09:14.716Z,98811.50
2023-03-11T20:11:42.636Z,98809.13
2023-03-11T20:14:10.665Z,98813.03
2023-03-11T20:16:38.696Z,98807.56
2023-03-11T20:19:08.655Z,98816.16
2023-03-11T20:21:37.098Z,98818.22
2023-03-11T20:24:05.721Z,98821.09
2023-03-11T20:26:34.679Z,98822.09
2023-03-11T20:29:02.386Z,98826.78
2023-03-11T20:31:32.916Z,98822.66
2023-03-11T20:34:03.169Z,98825.25
2023-03-11T20:36:34.575Z,98824.72
2023-03-11T20:39:06.868Z,98836.38
2023-03-11T20:41:39.463Z,98832.22
2023-03-11T20:44:09.314Z,98828.84
2023-03-11T20:46:37.434Z,98834.28
2023-03-11T20:49:07.451Z,98838.44
2023-03-11T20:51:35.295Z,98840.53
2023-03-11T20:54:03.899Z,98842.09
2023-03-11T20:56:34.632Z,98846.25
2023-03-11T20:59:01.832Z,98841.03
2023-03-11T21:01:31.629Z,98848.06
2023-03-11T21:04:03.625Z,98848.56
2023-03-11T21:06:37.041Z,98851.16
2023-03-11T21:09:11.539Z,98848.03
2023-03-11T21:11:38.673Z,98855.03
2023-03-11T21:14:07.400Z,98853.00
2023-03-11T21:16:35.405Z,98864.16
2023-03-11T21:19:03.392Z,98868.34
2023-03-11T21:21:32.494Z,98864.94
2023-03-11T21:24:00.894Z,98866.75
2023-03-11T21:26:28.417Z,98862.31
2023-03-11T21:28:55.422Z,98864.13
2023-03-11T21:31:28.570Z,98860.47
2023-03-11T21:33:58.440Z,98862.56
2023-03-11T21:36:29.776Z,98869.03
2023-03-11T21:39:02.906Z,98867.47
2023-03-11T21:41:32.431Z,98874.72
2023-03-11T21:44:00.152Z,98870.31
2023-03-11T21:46:31.256Z,98878.34
2023-03-11T21:49:00.393Z,98885.09
2023-03-11T21:51:27.913Z,98885.59
2023-03-11T21:53:56.127Z,98892.06
2023-03-11T21:56:23.406Z,98888.44
2023-03-11T21:58:52.309Z,98891.53
2023-03-11T22:01:19.194Z,98895.72
2023-03-11T22:03:46.282Z,98896.50
2023-03-11T22:06:14.471Z,98899.09
2023-03-11T22:08:42.056Z,98900.91
2023-03-11T22:11:15.485Z,98899.88
2023-03-11T22:13:43.668Z,98897.53
2023-03-11T22:16:10.756Z,98901.69
2023-03-11T22:18:37.710Z,98908.19
2023-03-11T22:21:05.779Z,98914.16
2023-03-11T22:23:32.579Z,98907.16
2023-03-11T22:26:00.381Z,98913.13
2023-03-11T22:28:27.949Z,98918.31
2023-03-11T22:30:54.997Z,98914.38
2023-03-11T22:33:21.766Z,98914.38
2023-03-11T22:35:59.481Z,98918.25
2023-03-11T22:38:26.462Z,98922.94
2023-03-11T22:40:53.229Z,98917.97
2023-03-11T22:43:20.084Z,98925.75
2023-03-11T22:45:48.164Z,98935.09
2023-03-11T22:48:14.979Z,98934.06
2023-03-11T22:50:45.337Z,98944.69
2023-03-11T22:53:13.500Z,98949.84
2023-03-11T22:55:42.131Z,98943.88
2023-03-11T22:58:11.190Z,98959.16
2023-03-11T23:00:38.337Z,98959.13
2023-03-11T23:06:00.389Z,98963.00
2023-03-11T23:08:27.450Z,98960.41
2023-03-11T23:10:54.854Z,98970.00
2023-03-11T23:13:21.691Z,98971.53
2023-03-11T23:15:48.933Z,98966.88
2023-03-11T23:18:15.846Z,98973.88
2023-03-11T23:20:44.428Z,98966.88
2023-03-11T23:23:12.254Z,98966.59
2023-03-11T23:25:41.392Z,98966.34
2023-03-11T23:28:08.910Z,98972.59
2023-03-11T23:30:36.174Z,98973.59
2023-03-11T23:33:03.543Z,98974.09
2023-03-11T23:35:31.538Z,98988.09
2023-03-11T23:37:59.017Z,98984.97
2023-03-11T23:40:26.599Z,98988.09
2023-03-11T23:42:53.390Z,98992.03
2023-03-11T23:45:20.198Z,98994.34
2023-03-11T23:47:47.023Z,98996.66
2023-03-11T23:50:13.892Z,98995.38
2023-03-11T23:52:40.847Z,98998.72
2023-03-11T23:55:08.723Z,98998.19
2023-03-11T23:57:37.752Z,99005.19
